createdAt,value
2022-11-12T00:00:35.791Z,8
2022-11-12T00:05:42.137Z,8
2022-11-12T00:10:48.363Z,8
2022-11-12T00:15:54.667Z,8
2022-11-12T00:21:00.953Z,8
2022-11-12T00:26:06.070Z,7.6
2022-11-12T00:31:12.364Z,7.6
2022-11-12T00:36:18.636Z,7.6
2022-11-12T00:41:24.948Z,7.6
2022-11-12T00:46:31.351Z,7.6
2022-11-12T00:51:37.509Z,7.6
2022-11-12T00:56:43.887Z,8
2022-11-12T01:01:50.079Z,7.6
2022-11-12T01:06:56.394Z,7.3
2022-11-12T01:12:02.679Z,7.6
2022-11-12T01:17:08.959Z,8
2022-11-12T01:22:15.271Z,8
2022-11-12T01:27:21.550Z,7.6
2022-11-12T01:37:32.948Z,8
2022-11-12T01:42:39.249Z,7.3
2022-11-12T01:47:45.548Z,7.6
2022-11-12T01:52:51.827Z,7.3
2022-11-12T01:57:58.117Z,7.3
2022-11-12T02:03:04.437Z,7
2022-11-12T02:08:10.684Z,7.6
2022-11-12T02:13:16.990Z,7.6
2022-11-12T02:18:23.295Z,8
2022-11-12T02:23:29.563Z,7.3
2022-11-12T02:28:35.867Z,7.6
2022-11-12T02:33:42.243Z,8
2022-11-12T02:38:47.248Z,7.6
2022-11-12T02:43:53.574Z,7.3
2022-11-12T02:48:59.885Z,7.6
2022-11-12T02:54:06.133Z,7.6
2022-11-12T02:59:12.421Z,7
2022-11-12T03:04:18.741Z,7.3
2022-11-12T03:09:23.835Z,7.6
2022-11-12T03:14:30.246Z,7.3
2022-11-12T03:19:36.408Z,7.3
2022-11-12T03:24:42.733Z,7.6
2022-11-12T03:29:48.996Z,6.7
2022-11-12T03:34:55.292Z,7.6
2022-11-12T03:40:01.562Z,8
2022-11-12T03:45:07.887Z,7.3
2022-11-12T03:50:14.161Z,7
2022-11-12T03:55:20.452Z,7.6
2022-11-12T04:00:26.749Z,7.3
2022-11-12T04:05:33.036Z,7.3
2022-11-12T04:10:39.341Z,7
2022-11-12T04:15:44.472Z,6.7
2022-11-12T04:20:50.744Z,7.3
2022-11-12T04:25:57.045Z,7.3
2022-11-12T04:36:09.633Z,7
2022-11-12T04:41:15.892Z,6.7
2022-11-12T04:46:22.196Z,7.3
2022-11-12T04:51:28.485Z,7
2022-11-12T04:56:34.771Z,7.3
2022-11-12T05:01:41.076Z,7
2022-11-12T05:06:47.364Z,7
2022-11-12T05:11:53.715Z,7
2022-11-12T05:16:59.955Z,7
2022-11-12T05:22:05.070Z,7
2022-11-12T05:27:11.356Z,7
2022-11-12T05:32:17.651Z,7.3
2022-11-12T05:37:23.939Z,6.7
2022-11-12T05:42:30.267Z,7
2022-11-12T05:47:36.515Z,7
2022-11-12T05:52:42.803Z,7
2022-11-12T05:57:49.083Z,7.3
2022-11-12T06:02:55.411Z,7.3
2022-11-12T06:08:01.687Z,7
2022-11-12T06:13:07.986Z,7.3
2022-11-12T06:18:14.272Z,6.7
2022-11-12T06:23:20.565Z,6.7
2022-11-12T06:28:25.689Z,6.7
2022-11-12T06:33:31.970Z,7
2022-11-12T06:38:38.251Z,7.3
2022-11-12T06:43:44.555Z,7
2022-11-12T06:48:50.874Z,7
2022-11-12T06:53:57.139Z,7.3
2022-11-12T06:59:03.445Z,6.7
2022-11-12T07:04:09.799Z,7
2022-11-12T07:09:15.999Z,7
2022-11-12T07:14:22.421Z,6.7
2022-11-12T07:19:28.589Z,7
2022-11-12T07:24:34.879Z,7
2022-11-12T07:29:41.167Z,6.7
2022-11-12T07:34:48.286Z,6.3
2022-11-12T07:39:54.562Z,6.7
2022-11-12T07:50:07.127Z,6.7
2022-11-12T07:55:13.411Z,6.7
2022-11-12T08:00:19.711Z,6.7
2022-11-12T08:05:26.008Z,7
2022-11-12T08:10:32.290Z,7
2022-11-12T08:15:38.556Z,6.7
2022-11-12T08:20:44.853Z,6.7
2022-11-12T08:25:51.154Z,6.7
2022-11-12T08:30:57.443Z,7
2022-11-12T08:36:03.720Z,7
2022-11-12T08:41:08.846Z,7
2022-11-12T08:46:15.130Z,6.7
2022-11-12T08:51:21.439Z,6.7
2022-11-12T08:56:27.682Z,6.7
2022-11-12T09:01:33.965Z,6.7
2022-11-12T09:06:40.364Z,6
2022-11-12T09:11:46.553Z,6.3
2022-11-12T09:16:52.837Z,7
2022-11-12T09:21:59.131Z,7
2022-11-12T09:27:05.531Z,7
2022-11-12T09:32:11.707Z,6.3
2022-11-12T09:37:17.979Z,6.3
2022-11-12T09:42:24.270Z,7
2022-11-12T09:47:31.359Z,6.7
2022-11-12T09:52:37.643Z,6.7
2022-11-12T09:57:43.931Z,7
2022-11-12T10:02:50.232Z,7
2022-11-12T10:07:56.515Z,7
2022-11-12T10:13:02.809Z,6.7
2022-11-12T10:18:09.080Z,7
2022-11-12T10:23:15.369Z,7
2022-11-12T10:28:21.649Z,7
2022-11-12T10:33:27.933Z,7.3
2022-11-12T10:38:34.278Z,7.3
2022-11-12T10:48:46.801Z,7
2022-11-12T10:53:51.919Z,6.7
2022-11-12T10:58:58.206Z,7.3
2022-11-12T11:04:04.497Z,7.6
2022-11-12T11:09:10.774Z,7
2022-11-12T11:14:17.058Z,7.6
2022-11-12T11:19:23.347Z,7.3
2022-11-12T11:24:29.663Z,7.3
2022-11-12T11:29:35.934Z,7.3
2022-11-12T11:34:42.196Z,7.3
2022-11-12T11:39:48.480Z,7.3
2022-11-12T11:44:54.778Z,7.6
2022-11-12T11:50:01.073Z,8
2022-11-12T11:55:07.344Z,7.3
2022-11-12T12:00:12.454Z,7.3
2022-11-12T12:05:18.739Z,7.6
2022-11-12T12:10:25.024Z,7.6
2022-11-12T12:15:31.331Z,8
2022-11-12T12:20:37.597Z,8.3
2022-11-12T12:25:43.886Z,7.3
2022-11-12T12:30:50.171Z,8.3
2022-11-12T12:35:56.450Z,7.6
2022-11-12T12:41:02.728Z,8.3
2022-11-12T12:46:09.031Z,8.6
2022-11-12T12:51:15.317Z,8.6
2022-11-12T12:56:21.588Z,8
2022-11-12T13:01:27.866Z,8
2022-11-12T13:06:32.995Z,8.3
2022-11-12T13:11:39.279Z,8.6
2022-11-12T13:16:45.556Z,8.3
2022-11-12T13:21:51.849Z,8.3
2022-11-12T13:26:58.176Z,8.6
2022-11-12T13:32:04.429Z,8.3
2022-11-12T13:37:10.712Z,8.6
2022-11-12T13:42:17.002Z,8.3
2022-11-12T13:47:23.273Z,8.9
2022-11-12T13:52:29.558Z,8.3
2022-11-12T13:57:35.885Z,8.9
2022-11-12T14:02:42.131Z,8.9
2022-11-12T14:07:48.419Z,8.3
2022-11-12T14:12:53.564Z,8.6
2022-11-12T14:17:59.879Z,8.3
2022-11-12T14:23:06.139Z,8.9
2022-11-12T14:28:12.389Z,8.3
2022-11-12T14:33:18.744Z,8.3
2022-11-12T14:38:24.963Z,9.2
2022-11-12T14:43:31.267Z,8.3
2022-11-12T14:48:37.571Z,8.6
2022-11-12T14:53:43.823Z,8.3
2022-11-12T14:58:50.159Z,8.3
2022-11-12T15:03:56.411Z,8.3
2022-11-12T15:09:02.739Z,8.6
2022-11-12T15:14:08.963Z,8.6
2022-11-12T15:19:14.110Z,8.6
2022-11-12T15:24:20.383Z,8.6
2022-11-12T15:29:26.677Z,8.3
2022-11-12T15:34:32.968Z,8.6
2022-11-12T15:39:39.237Z,8.3
2022-11-12T15:44:45.561Z,8
2022-11-12T15:49:51.820Z,8.3
2022-11-12T15:54:58.222Z,7.6
2022-11-12T16:00:04.406Z,8.6
2022-11-12T16:05:10.677Z,8.6
2022-11-12T16:10:16.981Z,8.3
2022-11-12T16:15:23.263Z,8.3
2022-11-12T16:20:29.568Z,8.3
2022-11-12T16:25:34.688Z,8
2022-11-12T16:30:40.963Z,8.3
2022-11-12T16:35:47.265Z,8
2022-11-12T16:40:53.547Z,8
2022-11-12T16:45:59.825Z,8.3
2022-11-12T16:51:06.119Z,8
2022-11-12T16:56:12.417Z,8
2022-11-12T17:01:18.726Z,8
2022-11-12T17:06:24.981Z,8
2022-11-12T17:11:31.282Z,7.6
2022-11-12T17:16:37.620Z,8.3
2022-11-12T17:21:43.855Z,8
2022-11-12T17:26:50.223Z,7.6
2022-11-12T17:31:55.261Z,8
2022-11-12T17:37:01.564Z,8
2022-11-12T17:42:07.865Z,8
2022-11-12T17:47:14.148Z,7.6
2022-11-12T17:52:20.463Z,8
2022-11-12T17:57:26.713Z,8
2022-11-12T18:02:32.987Z,7.6
2022-11-12T18:07:39.297Z,8
2022-11-12T18:12:45.574Z,7.6
2022-11-12T18:17:51.862Z,8
2022-11-12T18:22:58.161Z,7.3
2022-11-12T18:28:04.446Z,7.6
2022-11-12T18:33:10.732Z,7.6
2022-11-12T18:38:15.863Z,8
2022-11-12T18:43:22.165Z,7.6
2022-11-12T18:48:28.425Z,7.3
2022-11-12T18:53:34.772Z,8
2022-11-12T18:58:41.013Z,7.6
2022-11-12T19:03:47.304Z,7.6
2022-11-12T19:08:53.613Z,7.6
2022-11-12T19:13:59.934Z,7.3
2022-11-12T19:19:06.187Z,7.6
2022-11-12T19:24:12.478Z,7.6
2022-11-12T19:29:18.775Z,7.3
2022-11-12T19:34:25.054Z,7.3
2022-11-12T19:39:31.334Z,7.6
2022-11-12T19:44:36.467Z,6.7
2022-11-12T19:49:42.768Z,7.6
2022-11-12T19:54:49.066Z,7.6
2022-11-12T19:59:55.420Z,7.6
2022-11-12T20:05:01.741Z,7
2022-11-12T20:10:07.922Z,7.3
2022-11-12T20:15:13.114Z,7.3
2022-11-12T20:20:19.531Z,7
2022-11-12T20:25:25.629Z,7
2022-11-12T20:30:31.902Z,8.3
2022-11-12T20:35:38.204Z,7
2022-11-12T20:40:44.498Z,7.3
2022-11-12T20:45:50.783Z,7.3
2022-11-12T20:50:57.063Z,7.6
2022-11-12T20:56:03.369Z,6.7
2022-11-12T21:01:09.672Z,7.3
2022-11-12T21:06:15.940Z,7.3
2022-11-12T21:11:22.245Z,7.3
2022-11-12T21:16:28.640Z,7
2022-11-12T21:21:33.785Z,7.3
2022-11-12T21:26:39.985Z,6.7
2022-11-12T21:31:46.244Z,7.3
2022-11-12T21:36:52.518Z,7
2022-11-12T21:41:58.959Z,7.3
2022-11-12T21:47:05.113Z,7
2022-11-12T21:52:11.404Z,6.7
2022-11-12T21:57:17.686Z,7
2022-11-12T22:02:23.969Z,7
2022-11-12T22:07:30.425Z,7
2022-11-12T22:12:36.550Z,7.3
2022-11-12T22:17:42.958Z,7.3
2022-11-12T22:22:49.235Z,6.7
2022-11-12T22:27:54.311Z,6.7
2022-11-12T22:33:00.527Z,7
2022-11-12T22:38:06.811Z,7
2022-11-12T22:43:13.098Z,7
2022-11-12T22:53:25.687Z,7
2022-11-12T22:58:32.002Z,6.7
2022-11-12T23:03:38.254Z,7
2022-11-12T23:08:44.636Z,7.3
2022-11-12T23:13:50.888Z,7
2022-11-12T23:18:57.226Z,7
2022-11-12T23:24:03.497Z,7
2022-11-12T23:29:09.787Z,6.7
2022-11-12T23:34:14.833Z,6.3
2022-11-12T23:39:21.102Z,7
2022-11-12T23:44:27.409Z,6.7
2022-11-12T23:49:33.745Z,7
2022-11-12T23:54:39.968Z,6.7
2022-11-12T23:59:46.254Z,6.7
